sensor_id;sensor_type;location;lat;lon;timestamp;pressure;altitude;pressure_sealevel;temperature;humidity
75646;BME280;64237;52.438;13.240;2023-03-16T00:02:02;101677.47;;;-0.87;87.13
75646;BME280;64237;52.438;13.240;2023-03-16T00:04:28;101683.84;;;-0.78;87.32
75646;BME280;64237;52.438;13.240;2023-03-16T00:06:54;101685.44;;;-0.85;87.27
75646;BME280;64237;52.438;13.240;2023-03-16T00:09:20;101685.72;;;-0.79;86.92
75646;BME280;64237;52.438;13.240;2023-03-16T00:11:45;101682.72;;;-0.85;87.17
75646;BME280;64237;52.438;13.240;2023-03-16T00:14:10;101691.31;;;-0.90;87.66
75646;BME280;64237;52.438;13.240;2023-03-16T00:16:36;101682.19;;;-0.89;87.00
75646;BME280;64237;52.438;13.240;2023-03-16T00:19:01;101686.88;;;-0.91;86.98
75646;BME280;64237;52.438;13.240;2023-03-16T00:21:27;101690.31;;;-0.89;87.01
75646;BME280;64237;52.438;13.240;2023-03-16T00:23:54;101693.56;;;-0.85;87.14
75646;BME280;64237;52.438;13.240;2023-03-16T00:26:20;101699.47;;;-0.90;86.79
75646;BME280;64237;52.438;13.240;2023-03-16T00:28:46;101698.31;;;-0.97;87.24
75646;BME280;64237;52.438;13.240;2023-03-16T00:31:13;101699.59;;;-1.01;87.75
75646;BME280;64237;52.438;13.240;2023-03-16T00:33:38;101689.47;;;-0.89;87.10
75646;BME280;64237;52.438;13.240;2023-03-16T00:36:05;101697.75;;;-1.00;87.14
75646;BME280;64237;52.438;13.240;2023-03-16T00:38:35;101704.63;;;-0.96;87.10
75646;BME280;64237;52.438;13.240;2023-03-16T00:41:02;101693.19;;;-1.00;87.13
75646;BME280;64237;52.438;13.240;2023-03-16T00:43:31;101702.59;;;-1.04;86.87
75646;BME280;64237;52.438;13.240;2023-03-16T00:46:05;101702.59;;;-1.04;87.46
75646;BME280;64237;52.438;13.240;2023-03-16T00:48:33;101696.47;;;-1.06;87.12
75646;BME280;64237;52.438;13.240;2023-03-16T00:51:03;101701.19;;;-0.89;86.69
75646;BME280;64237;52.438;13.240;2023-03-16T00:53:32;101710.19;;;-0.98;86.76
75646;BME280;64237;52.438;13.240;2023-03-16T00:55:57;101705.47;;;-1.06;86.89
75646;BME280;64237;52.438;13.240;2023-03-16T00:58:23;101709.63;;;-1.11;87.20
75646;BME280;64237;52.438;13.240;2023-03-16T01:00:48;101708.91;;;-1.04;87.44
75646;BME280;64237;52.438;13.240;2023-03-16T01:03:15;101709.78;;;-1.13;87.06
75646;BME280;64237;52.438;13.240;2023-03-16T01:05:41;101714.91;;;-1.00;87.01
75646;BME280;64237;52.438;13.240;2023-03-16T01:08:08;101711.75;;;-1.05;86.90
75646;BME280;64237;52.438;13.240;2023-03-16T01:10:36;101713.19;;;-1.01;86.59
75646;BME280;64237;52.438;13.240;2023-03-16T01:13:02;101712.28;;;-0.82;86.19
75646;BME280;64237;52.438;13.240;2023-03-16T01:15:29;101716.91;;;-0.92;85.66
75646;BME280;64237;52.438;13.240;2023-03-16T01:17:54;101713.75;;;-0.97;86.05
75646;BME280;64237;52.438;13.240;2023-03-16T01:20:19;101716.63;;;-0.99;86.11
75646;BME280;64237;52.438;13.240;2023-03-16T01:22:45;101716.34;;;-1.15;86.19
75646;BME280;64237;52.438;13.240;2023-03-16T01:25:11;101714.63;;;-1.16;86.42
75646;BME280;64237;52.438;13.240;2023-03-16T01:27:37;101710.78;;;-1.14;86.38
75646;BME280;64237;52.438;13.240;2023-03-16T01:30:03;101712.91;;;-1.17;86.06
75646;BME280;64237;52.438;13.240;2023-03-16T01:32:30;101720.91;;;-1.25;87.05
75646;BME280;64237;52.438;13.240;2023-03-16T01:34:55;101717.19;;;-1.24;87.13
75646;BME280;64237;52.438;13.240;2023-03-16T01:37:21;101712.03;;;-1.27;86.68
75646;BME280;64237;52.438;13.240;2023-03-16T01:39:47;101715.34;;;-1.33;86.87
75646;BME280;64237;52.438;13.240;2023-03-16T01:42:13;101708.78;;;-1.41;87.17
75646;BME280;64237;52.438;13.240;2023-03-16T01:44:53;101709.63;;;-1.21;87.00
75646;BME280;64237;52.438;13.240;2023-03-16T01:47:19;101701.75;;;-1.24;87.28
75646;BME280;64237;52.438;13.240;2023-03-16T01:49:45;101695.75;;;-1.27;86.80
75646;BME280;64237;52.438;13.240;2023-03-16T01:52:16;101704.34;;;-1.22;86.69
75646;BME280;64237;52.438;13.240;2023-03-16T01:54:45;101701.19;;;-1.27;87.00
75646;BME280;64237;52.438;13.240;2023-03-16T01:57:23;101704.03;;;-1.29;87.30
75646;BME280;64237;52.438;13.240;2023-03-16T02:02:37;101697.75;;;-1.29;86.52
75646;BME280;64237;52.438;13.240;2023-03-16T02:07:39;101698.06;;;-1.32;87.21
75646;BME280;64237;52.438;13.240;2023-03-16T02:10:07;101702.94;;;-1.36;87.02
75646;BME280;64237;52.438;13.240;2023-03-16T02:12:33;101700.06;;;-1.44;86.59
75646;BME280;64237;52.438;13.240;2023-03-16T02:14:59;101684.94;;;-1.37;86.38
75646;BME280;64237;52.438;13.240;2023-03-16T02:17:27;101698.34;;;-1.35;86.27
75646;BME280;64237;52.438;13.240;2023-03-16T02:20:22;101693.94;;;-1.36;86.65
75646;BME280;64237;52.438;13.240;2023-03-16T02:22:50;101692.06;;;-1.46;87.23
75646;BME280;64237;52.438;13.240;2023-03-16T02:25:24;101691.34;;;-1.48;87.56
75646;BME280;64237;52.438;13.240;2023-03-16T02:28:02;101691.94;;;-1.54;86.61
75646;BME280;64237;52.438;13.240;2023-03-16T02:30:31;101697.75;;;-1.49;87.35
75646;BME280;64237;52.438;13.240;2023-03-16T02:32:56;101695.63;;;-1.55;86.88
75646;BME280;64237;52.438;13.240;2023-03-16T02:35:22;101697.19;;;-1.62;87.13
75646;BME280;64237;52.438;13.240;2023-03-16T02:37:47;101694.91;;;-1.57;86.88
75646;BME280;64237;52.438;13.240;2023-03-16T02:40:21;101694.66;;;-1.34;85.97
75646;BME280;64237;52.438;13.240;2023-03-16T02:43:03;101695.63;;;-1.35;85.92
75646;BME280;64237;52.438;13.240;2023-03-16T02:45:39;101698.34;;;-1.35;85.97
75646;BME280;64237;52.438;13.240;2023-03-16T02:48:15;101702.38;;;-1.30;85.90
75646;BME280;64237;52.438;13.240;2023-03-16T02:50:44;101704.63;;;-1.45;86.00
75646;BME280;64237;52.438;13.240;2023-03-16T02:53:12;101699.75;;;-1.51;86.31
75646;BME280;64237;52.438;13.240;2023-03-16T02:55:37;101700.19;;;-1.55;86.89
75646;BME280;64237;52.438;13.240;2023-03-16T02:58:02;101703.06;;;-1.57;86.53
75646;BME280;64237;52.438;13.240;2023-03-16T03:00:28;101706.75;;;-1.58;86.47
75646;BME280;64237;52.438;13.240;2023-03-16T03:02:53;101711.31;;;-1.49;86.41
75646;BME280;64237;52.438;13.240;2023-03-16T03:05:19;101713.19;;;-1.59;86.17
75646;BME280;64237;52.438;13.240;2023-03-16T03:07:45;101709.16;;;-1.64;86.53
75646;BME280;64237;52.438;13.240;2023-03-16T03:10:11;101713.75;;;-1.65;86.49
75646;BME280;64237;52.438;13.240;2023-03-16T03:12:36;101712.16;;;-1.67;86.45
75646;BME280;64237;52.438;13.240;2023-03-16T03:15:02;101720.59;;;-1.61;86.14
75646;BME280;64237;52.438;13.240;2023-03-16T03:17:28;101720.19;;;-1.47;85.92
75646;BME280;64237;52.438;13.240;2023-03-16T03:19:57;101729.72;;;-1.62;86.30
75646;BME280;64237;52.438;13.240;2023-03-16T03:22:24;101731.19;;;-1.58;86.37
75646;BME280;64237;52.438;13.240;2023-03-16T03:24:50;101731.16;;;-1.67;85.94
75646;BME280;64237;52.438;13.240;2023-03-16T03:27:16;101737.41;;;-1.77;86.13
75646;BME280;64237;52.438;13.240;2023-03-16T03:29:41;101732.56;;;-1.73;87.19
75646;BME280;64237;52.438;13.240;2023-03-16T03:32:06;101737.16;;;-1.64;86.36
75646;BME280;64237;52.438;13.240;2023-03-16T03:34:32;101727.47;;;-1.57;85.75
75646;BME280;64237;52.438;13.240;2023-03-16T03:36:58;101734.31;;;-1.62;85.93
75646;BME280;64237;52.438;13.240;2023-03-16T03:39:24;101732.72;;;-1.65;86.08
75646;BME280;64237;52.438;13.240;2023-03-16T03:41:49;101732.91;;;-1.57;85.81
75646;BME280;64237;52.438;13.240;2023-03-16T03:44:21;101736.13;;;-1.73;85.93
75646;BME280;64237;52.438;13.240;2023-03-16T03:46:47;101735.47;;;-1.55;85.83
75646;BME280;64237;52.438;13.240;2023-03-16T03:49:12;101733.72;;;-1.76;85.99
75646;BME280;64237;52.438;13.240;2023-03-16T03:51:38;101738.81;;;-1.82;86.19
75646;BME280;64237;52.438;13.240;2023-03-16T03:54:05;101722.28;;;-1.79;86.03
75646;BME280;64237;52.438;13.240;2023-03-16T03:56:30;101735.97;;;-1.71;86.17
75646;BME280;64237;52.438;13.240;2023-03-16T03:58:56;101740.53;;;-1.81;86.89
75646;BME280;64237;52.438;13.240;2023-03-16T04:01:22;101732.84;;;-1.76;86.46
75646;BME280;64237;52.438;13.240;2023-03-16T04:03:48;101728.25;;;-1.85;86.90
75646;BME280;64237;52.438;13.240;2023-03-16T04:06:13;101735.25;;;-1.73;86.13
75646;BME280;64237;52.438;13.240;2023-03-16T04:08:38;101734.84;;;-1.78;86.48
75646;BME280;64237;52.438;13.240;2023-03-16T04:11:04;101733.00;;;-1.68;85.92
75646;BME280;64237;52.438;13.240;2023-03-16T04:13:29;101729.41;;;-1.78;85.77
75646;BME280;64237;52.438;13.240;2023-03-16T04:15:59;101736.28;;;-1.74;85.55
75646;BME280;64237;52.438;13.240;2023-03-16T04:18:27;101726.84;;;-1.80;85.87
75646;BME280;64237;52.438;13.240;2023-03-16T04:20:52;101731.56;;;-1.72;86.00
75646;BME280;64237;52.438;13.240;2023-03-16T04:23:19;101732.50;;;-1.92;86.30
75646;BME280;64237;52.438;13.240;2023-03-16T04:25:44;101735.22;;;-1.92;86.81
75646;BME280;64237;52.438;13.240;2023-03-16T04:28:10;101739.09;;;-1.95;86.49
75646;BME280;64237;52.438;13.240;2023-03-16T04:30:36;101744.25;;;-1.82;86.01
75646;BME280;64237;52.438;13.240;2023-03-16T04:33:01;101733.41;;;-1.82;86.64
75646;BME280;64237;52.438;13.240;2023-03-16T04:35:27;101735.13;;;-1.81;85.51
75646;BME280;64237;52.438;13.240;2023-03-16T04:37:52;101746.50;;;-1.87;86.26
75646;BME280;64237;52.438;13.240;2023-03-16T04:40:17;101734.66;;;-1.86;86.22
75646;BME280;64237;52.438;13.240;2023-03-16T04:42:44;101747.97;;;-1.83;86.02
75646;BME280;64237;52.438;13.240;2023-03-16T04:45:10;101745.69;;;-1.78;85.35
75646;BME280;64237;52.438;13.240;2023-03-16T04:47:36;101745.91;;;-2.00;86.03
75646;BME280;64237;52.438;13.240;2023-03-16T04:50:02;101736.19;;;-2.03;86.62
75646;BME280;64237;52.438;13.240;2023-03-16T04:52:29;101748.44;;;-2.09;86.87
75646;BME280;64237;52.438;13.240;2023-03-16T04:54:55;101749.09;;;-2.16;86.82
75646;BME280;64237;52.438;13.240;2023-03-16T04:57:20;101749.84;;;-2.14;86.28
75646;BME280;64237;52.438;13.240;2023-03-16T04:59:45;101747.22;;;-2.25;87.15
75646;BME280;64237;52.438;13.240;2023-03-16T05:02:11;101753.25;;;-2.22;86.73
75646;BME280;64237;52.438;13.240;2023-03-16T05:04:36;101753.25;;;-2.22;86.54
75646;BME280;64237;52.438;13.240;2023-03-16T05:07:02;101761.81;;;-2.17;86.76
75646;BME280;64237;52.438;13.240;2023-03-16T05:09:27;101749.06;;;-1.95;85.72
75646;BME280;64237;52.438;13.240;2023-03-16T05:11:52;101754.19;;;-2.02;85.59
75646;BME280;64237;52.438;13.240;2023-03-16T05:14:18;101749.94;;;-1.95;85.35
75646;BME280;64237;52.438;13.240;2023-03-16T05:16:43;101756.91;;;0.63;75.70
75646;BME280;64237;52.438;13.240;2023-03-16T05:19:08;101752.03;;;-0.72;79.91
75646;BME280;64237;52.438;13.240;2023-03-16T05:21:33;101761.50;;;-1.14;81.92
75646;BME280;64237;52.438;13.240;2023-03-16T05:24:02;101760.28;;;-1.60;82.75
75646;BME280;64237;52.438;13.240;2023-03-16T05:26:28;101758.13;;;-1.66;84.68
75646;BME280;64237;52.438;13.240;2023-03-16T05:28:53;101762.25;;;-1.72;83.96
75646;BME280;64237;52.438;13.240;2023-03-16T05:31:18;101759.97;;;-1.76;84.82
75646;BME280;64237;52.438;13.240;2023-03-16T05:33:44;101757.63;;;-1.90;85.09
75646;BME280;64237;52.438;13.240;2023-03-16T05:36:10;101764.75;;;-1.89;84.91
75646;BME280;64237;52.438;13.240;2023-03-16T05:38:35;101756.63;;;-1.89;85.46
75646;BME280;64237;52.438;13.240;2023-03-16T05:41:01;101760.53;;;-1.82;84.96
75646;BME280;64237;52.438;13.240;2023-03-16T05:43:29;101759.78;;;-1.84;85.52
75646;BME280;64237;52.438;13.240;2023-03-16T05:45:54;101774.25;;;-1.74;85.15
75646;BME280;64237;52.438;13.240;2023-03-16T05:48:20;101766.75;;;-1.91;85.87
75646;BME280;64237;52.438;13.240;2023-03-16T05:50:46;101761.59;;;-1.94;85.90
75646;BME280;64237;52.438;13.240;2023-03-16T05:53:11;101766.75;;;-1.91;86.14
75646;BME280;64237;52.438;13.240;2023-03-16T05:55:37;101768.19;;;-1.87;85.46
75646;BME280;64237;52.438;13.240;2023-03-16T05:58:03;101779.63;;;-1.84;85.67
75646;BME280;64237;52.438;13.240;2023-03-16T06:00:28;101759.75;;;-1.94;86.13
75646;BME280;64237;52.438;13.240;2023-03-16T06:02:54;101765.94;;;-1.82;85.95
75646;BME280;64237;52.438;13.240;2023-03-16T06:05:20;101776.53;;;-1.79;86.03
75646;BME280;64237;52.438;13.240;2023-03-16T06:07:46;101779.69;;;-1.74;85.81
75646;BME280;64237;52.438;13.240;2023-03-16T06:10:13;101781.94;;;-1.79;85.84
75646;BME280;64237;52.438;13.240;2023-03-16T06:12:39;101768.66;;;-1.82;86.10
75646;BME280;64237;52.438;13.240;2023-03-16T06:15:06;101768.50;;;-1.81;86.35
75646;BME280;64237;52.438;13.240;2023-03-16T06:17:32;101774.25;;;-1.74;86.48
75646;BME280;64237;52.438;13.240;2023-03-16T06:19:58;101773.72;;;-1.58;85.85
75646;BME280;64237;52.438;13.240;2023-03-16T06:22:23;101776.88;;;-1.53;85.44
75646;BME280;64237;52.438;13.240;2023-03-16T06:24:49;101778.16;;;-1.48;85.58
75646;BME280;64237;52.438;13.240;2023-03-16T06:27:15;101784.75;;;-1.41;85.69
75646;BME280;64237;52.438;13.240;2023-03-16T06:29:40;101783.19;;;-1.33;85.72
75646;BME280;64237;52.438;13.240;2023-03-16T06:32:06;101784.31;;;-1.26;85.53
75646;BME280;64237;52.438;13.240;2023-03-16T06:34:31;101789.47;;;-1.23;85.68
75646;BME280;64237;52.438;13.240;2023-03-16T06:36:56;101795.91;;;-1.05;84.99
75646;BME280;64237;52.438;13.240;2023-03-16T06:39:22;101800.06;;;-0.82;84.32
75646;BME280;64237;52.438;13.240;2023-03-16T06:41:47;101809.34;;;-0.84;84.17
75646;BME280;64237;52.438;13.240;2023-03-16T06:44:12;101800.94;;;-0.72;84.64
75646;BME280;64237;52.438;13.240;2023-03-16T06:46:38;101811.91;;;-0.63;84.16
75646;BME280;64237;52.438;13.240;2023-03-16T06:49:03;101813.94;;;-0.56;83.64
75646;BME280;64237;52.438;13.240;2023-03-16T06:51:30;101799.78;;;-0.50;83.66
75646;BME280;64237;52.438;13.240;2023-03-16T06:53:56;101818.91;;;-0.42;83.50
75646;BME280;64237;52.438;13.240;2023-03-16T06:56:21;101805.16;;;-0.40;83.48
75646;BME280;64237;52.438;13.240;2023-03-16T06:58:46;101811.69;;;-0.14;82.78
75646;BME280;64237;52.438;13.240;2023-03-16T07:01:12;101818.63;;;0.08;82.25
75646;BME280;64237;52.438;13.240;2023-03-16T07:03:37;101825.78;;;0.19;82.27
75646;BME280;64237;52.438;13.240;2023-03-16T07:06:03;101833.28;;;0.34;81.07
75646;BME280;64237;52.438;13.240;2023-03-16T07:08:28;101831.03;;;0.57;79.50
75646;BME280;64237;52.438;13.240;2023-03-16T07:10:53;101832.53;;;0.69;79.90
75646;BME280;64237;52.438;13.240;2023-03-16T07:13:19;101836.97;;;0.88;79.02
75646;BME280;64237;52.438;13.240;2023-03-16T07:15:44;101843.78;;;1.02;76.58
75646;BME280;64237;52.438;13.240;2023-03-16T07:18:10;101828.16;;;1.22;75.15
75646;BME280;64237;52.438;13.240;2023-03-16T07:20:36;101830.88;;;1.40;74.72
75646;BME280;64237;52.438;13.240;2023-03-16T07:23:02;101825.34;;;1.49;78.26
75646;BME280;64237;52.438;13.240;2023-03-16T07:25:29;101831.84;;;1.56;74.60
75646;BME280;64237;52.438;13.240;2023-03-16T07:27:56;101828.06;;;1.75;74.42
75646;BME280;64237;52.438;13.240;2023-03-16T07:30:21;101832.59;;;1.84;75.70
75646;BME280;64237;52.438;13.240;2023-03-16T07:32:47;101846.88;;;2.04;72.48
75646;BME280;64237;52.438;13.240;2023-03-16T07:35:12;101833.84;;;2.16;74.24
75646;BME280;64237;52.438;13.240;2023-03-16T07:37:37;101840.78;;;2.36;72.46
75646;BME280;64237;52.438;13.240;2023-03-16T07:40:03;101846.94;;;2.46;72.46
75646;BME280;64237;52.438;13.240;2023-03-16T07:42:31;101849.03;;;2.60;71.39
75646;BME280;64237;52.438;13.240;2023-03-16T07:44:56;101850.66;;;2.71;69.51
75646;BME280;64237;52.438;13.240;2023-03-16T07:47:21;101843.00;;;2.83;70.34
75646;BME280;64237;52.438;13.240;2023-03-16T07:49:48;101855.72;;;3.00;68.55
75646;BME280;64237;52.438;13.240;2023-03-16T07:52:13;101850.09;;;3.18;68.00
75646;BME280;64237;52.438;13.240;2023-03-16T07:54:39;101849.59;;;3.30;67.55
75646;BME280;64237;52.438;13.240;2023-03-16T07:57:06;101851.84;;;3.51;65.42
75646;BME280;64237;52.438;13.240;2023-03-16T07:59:31;101856.13;;;3.62;65.42
75646;BME280;64237;52.438;13.240;2023-03-16T08:01:56;101851.34;;;3.80;63.02
75646;BME280;64237;52.438;13.240;2023-03-16T08:04:22;101850.66;;;3.78;62.44
75646;BME280;64237;52.438;13.240;2023-03-16T08:06:47;101865.03;;;3.80;62.38
75646;BME280;64237;52.438;13.240;2023-03-16T08:09:13;101856.81;;;3.72;64.19
75646;BME280;64237;52.438;13.240;2023-03-16T08:11:38;101856.09;;;5.05;82.91
75646;BME280;64237;52.438;13.240;2023-03-16T08:14:04;101857.00;;;5.97;60.82
75646;BME280;64237;52.438;13.240;2023-03-16T08:16:29;101859.78;;;5.20;58.77
75646;BME280;64237;52.438;13.240;2023-03-16T08:18:56;101854.06;;;4.99;57.98
75646;BME280;64237;52.438;13.240;2023-03-16T08:21:21;101856.22;;;4.80;59.67
75646;BME280;64237;52.438;13.240;2023-03-16T08:23:48;101856.53;;;4.86;61.31
75646;BME280;64237;52.438;13.240;2023-03-16T08:26:19;101859.19;;;4.71;59.38
75646;BME280;64237;52.438;13.240;2023-03-16T08:28:45;101862.38;;;4.82;59.55
75646;BME280;64237;52.438;13.240;2023-03-16T08:31:14;101856.19;;;4.89;57.48
75646;BME280;64237;52.438;13.240;2023-03-16T08:33:41;101868.69;;;4.91;58.42
75646;BME280;64237;52.438;13.240;2023-03-16T08:36:08;101872.56;;;5.05;58.70
75646;BME280;64237;52.438;13.240;2023-03-16T08:38:36;101869.44;;;5.16;58.26
75646;BME280;64237;52.438;13.240;2023-03-16T08:41:02;101877.06;;;4.98;55.90
75646;BME280;64237;52.438;13.240;2023-03-16T08:43:29;101871.94;;;4.95;56.71
75646;BME280;64237;52.438;13.240;2023-03-16T08:45:54;101867.94;;;5.05;56.29
75646;BME280;64237;52.438;13.240;2023-03-16T08:48:20;101871.00;;;5.10;56.72
75646;BME280;64237;52.438;13.240;2023-03-16T08:50:46;101880.41;;;5.16;57.10
75646;BME280;64237;52.438;13.240;2023-03-16T08:53:13;101878.94;;;5.28;54.98
75646;BME280;64237;52.438;13.240;2023-03-16T08:55:39;101881.88;;;5.49;55.80
75646;BME280;64237;52.438;13.240;2023-03-16T08:58:06;101880.19;;;5.48;54.21
75646;BME280;64237;52.438;13.240;2023-03-16T09:00:32;101888.59;;;5.70;53.74
75646;BME280;64237;52.438;13.240;2023-03-16T09:02:57;101883.38;;;5.83;53.50
75646;BME280;64237;52.438;13.240;2023-03-16T09:05:24;101882.63;;;5.89;54.77
75646;BME280;64237;52.438;13.240;2023-03-16T09:07:50;101880.69;;;5.98;53.78
75646;BME280;64237;52.438;13.240;2023-03-16T09:10:15;101885.44;;;6.04;52.80
75646;BME280;64237;52.438;13.240;2023-03-16T09:12:42;101888.91;;;6.35;53.11
75646;BME280;64237;52.438;13.240;2023-03-16T09:15:09;101879.50;;;6.30;50.29
75646;BME280;64237;52.438;13.240;2023-03-16T09:17:36;101883.53;;;6.42;51.33
75646;BME280;64237;52.438;13.240;2023-03-16T09:20:04;101883.34;;;6.58;50.76
75646;BME280;64237;52.438;13.240;2023-03-16T09:22:29;101881.34;;;6.67;51.29
75646;BME280;64237;52.438;13.240;2023-03-16T09:24:55;101871.09;;;6.75;49.91
75646;BME280;64237;52.438;13.240;2023-03-16T09:27:20;101888.81;;;6.73;50.11
75646;BME280;64237;52.438;13.240;2023-03-16T09:29:47;101882.75;;;6.77;50.52
75646;BME280;64237;52.438;13.240;2023-03-16T09:32:13;101891.09;;;6.99;48.40
75646;BME280;64237;52.438;13.240;2023-03-16T09:34:39;101881.78;;;7.00;49.72
75646;BME280;64237;52.438;13.240;2023-03-16T09:37:04;101886.69;;;7.19;49.35
75646;BME280;64237;52.438;13.240;2023-03-16T09:39:30;101894.06;;;7.33;49.72
75646;BME280;64237;52.438;13.240;2023-03-16T09:42:34;101895.50;;;7.29;47.06
75646;BME280;64237;52.438;13.240;2023-03-16T09:47:39;101897.50;;;7.35;46.94
75646;BME280;64237;52.438;13.240;2023-03-16T09:50:20;101895.69;;;7.28;46.68
75646;BME280;64237;52.438;13.240;2023-03-16T09:53:22;101892.50;;;7.45;46.29
75646;BME280;64237;52.438;13.240;2023-03-16T09:55:54;101895.66;;;7.64;45.65
75646;BME280;64237;52.438;13.240;2023-03-16T09:58:23;101893.84;;;7.71;44.98
75646;BME280;64237;52.438;13.240;2023-03-16T10:01:19;101892.13;;;7.91;44.17
75646;BME280;64237;52.438;13.240;2023-03-16T10:04:36;101883.06;;;8.18;47.10
75646;BME280;64237;52.438;13.240;2023-03-16T10:09:56;101888.56;;;8.40;41.88
75646;BME280;64237;52.438;13.240;2023-03-16T10:12:28;101891.78;;;8.43;44.06
75646;BME280;64237;52.438;13.240;2023-03-16T10:15:12;101886.75;;;8.53;44.18
75646;BME280;64237;52.438;13.240;2023-03-16T10:17:46;101884.09;;;8.39;42.56
75646;BME280;64237;52.438;13.240;2023-03-16T10:20:17;101877.88;;;8.58;41.64
75646;BME280;64237;52.438;13.240;2023-03-16T10:22:45;101882.78;;;9.04;42.71
75646;BME280;64237;52.438;13.240;2023-03-16T10:25:30;101876.78;;;8.87;40.58
75646;BME280;64237;52.438;13.240;2023-03-16T10:27:58;101886.66;;;9.16;40.29
75646;BME280;64237;52.438;13.240;2023-03-16T10:30:34;101876.94;;;9.33;42.14
75646;BME280;64237;52.438;13.240;2023-03-16T10:38:39;101873.63;;;9.57;38.08
75646;BME280;64237;52.438;13.240;2023-03-16T10:43:50;101869.81;;;9.65;39.50
75646;BME280;64237;52.438;13.240;2023-03-16T10:46:15;101875.78;;;9.82;39.77
75646;BME280;64237;52.438;13.240;2023-03-16T10:48:50;101877.72;;;9.88;36.31
75646;BME280;64237;52.438;13.240;2023-03-16T10:51:18;101867.75;;;9.93;36.53
75646;BME280;64237;52.438;13.240;2023-03-16T10:53:46;101873.91;;;10.02;36.53
75646;BME280;64237;52.438;13.240;2023-03-16T10:56:22;101874.75;;;10.03;34.09
75646;BME280;64237;52.438;13.240;2023-03-16T10:58:49;101874.56;;;10.11;38.30
75646;BME280;64237;52.438;13.240;2023-03-16T11:01:22;101870.53;;;10.20;35.24
75646;BME280;64237;52.438;13.240;2023-03-16T11:03:51;101869.44;;;10.41;35.85
75646;BME280;64237;52.438;13.240;2023-03-16T11:06:22;101871.38;;;10.27;34.02
75646;BME280;64237;52.438;13.240;2023-03-16T11:08:51;101862.00;;;10.21;34.45
75646;BME280;64237;52.438;13.240;2023-03-16T11:11:23;101860.06;;;10.55;33.99
75646;BME280;64237;52.438;13.240;2023-03-16T11:13:55;101863.50;;;10.44;33.34
75646;BME280;64237;52.438;13.240;2023-03-16T11:16:33;101857.69;;;10.65;34.28
75646;BME280;64237;52.438;13.240;2023-03-16T11:19:17;101848.59;;;10.51;34.09
75646;BME280;64237;52.438;13.240;2023-03-16T11:21:59;101837.53;;;10.18;32.70
75646;BME280;64237;52.438;13.240;2023-03-16T11:24:33;101846.91;;;10.24;33.71
75646;BME280;64237;52.438;13.240;2023-03-16T11:27:03;101848.19;;;10.35;36.79
75646;BME280;64237;52.438;13.240;2023-03-16T11:32:10;101839.66;;;10.49;34.64
75646;BME280;64237;52.438;13.240;2023-03-16T11:34:38;101849.81;;;10.62;34.97
75646;BME280;64237;52.438;13.240;2023-03-16T11:39:57;101840.44;;;10.76;34.38
75646;BME280;64237;52.438;13.240;2023-03-16T11:45:02;101832.00;;;10.18;33.56
75646;BME280;64237;52.438;13.240;2023-03-16T11:53:30;101820.81;;;11.29;33.43
75646;BME280;64237;52.438;13.240;2023-03-16T11:56:14;101819.59;;;11.56;33.69
75646;BME280;64237;52.438;13.240;2023-03-16T11:59:09;101817.84;;;12.18;30.65
75646;BME280;64237;52.438;13.240;2023-03-16T12:01:48;101812.13;;;12.13;31.04
75646;BME280;64237;52.438;13.240;2023-03-16T12:04:30;101815.44;;;12.47;29.75
75646;BME280;64237;52.438;13.240;2023-03-16T12:07:24;101813.09;;;12.44;26.94
75646;BME280;64237;52.438;13.240;2023-03-16T12:10:00;101813.34;;;13.45;26.53
75646;BME280;64237;52.438;13.240;2023-03-16T12:12:39;101798.06;;;13.06;25.59
75646;BME280;64237;52.438;13.240;2023-03-16T12:15:22;101806.50;;;13.18;27.90
75646;BME280;64237;52.438;13.240;2023-03-16T12:17:53;101804.97;;;13.33;27.62
75646;BME280;64237;52.438;13.240;2023-03-16T12:20:27;101795.38;;;13.18;26.76
75646;BME280;64237;52.438;13.240;2023-03-16T12:23:07;101787.00;;;13.36;25.80
75646;BME280;64237;52.438;13.240;2023-03-16T12:25:36;101791.00;;;13.82;25.51
75646;BME280;64237;52.438;13.240;2023-03-16T12:28:10;101776.41;;;13.56;27.24
75646;BME280;64237;52.438;13.240;2023-03-16T12:30:59;101775.41;;;14.39;27.12
75646;BME280;64237;52.438;13.240;2023-03-16T12:38:36;101781.75;;;13.69;27.09
75646;BME280;64237;52.438;13.240;2023-03-16T12:41:27;101778.69;;;12.99;27.64
75646;BME280;64237;52.438;13.240;2023-03-16T12:49:10;101755.91;;;13.81;25.41
75646;BME280;64237;52.438;13.240;2023-03-16T12:51:38;101760.34;;;13.58;26.49
75646;BME280;64237;52.438;13.240;2023-03-16T12:54:05;101742.81;;;13.69;24.53
75646;BME280;64237;52.438;13.240;2023-03-16T12:56:33;101755.59;;;13.47;22.08
75646;BME280;64237;52.438;13.240;2023-03-16T12:59:02;101745.91;;;13.38;23.30
75646;BME280;64237;52.438;13.240;2023-03-16T13:01:36;101741.72;;;12.69;28.39
75646;BME280;64237;52.438;13.240;2023-03-16T13:04:29;101745.84;;;12.78;27.04
75646;BME280;64237;52.438;13.240;2023-03-16T13:07:05;101728.88;;;12.13;28.14
75646;BME280;64237;52.438;13.240;2023-03-16T13:09:34;101733.06;;;11.23;29.87
75646;BME280;64237;52.438;13.240;2023-03-16T13:12:01;101732.91;;;11.18;29.61
75646;BME280;64237;52.438;13.240;2023-03-16T13:14:35;101720.91;;;10.41;32.77
75646;BME280;64237;52.438;13.240;2023-03-16T13:17:22;101721.03;;;10.66;32.76
75646;BME280;64237;52.438;13.240;2023-03-16T13:20:05;101719.91;;;10.36;32.09
75646;BME280;64237;52.438;13.240;2023-03-16T13:22:49;101733.66;;;10.55;34.21
75646;BME280;64237;52.438;13.240;2023-03-16T13:25:19;101736.28;;;10.30;31.84
75646;BME280;64237;52.438;13.240;2023-03-16T13:27:48;101742.28;;;9.94;30.35
75646;BME280;64237;52.438;13.240;2023-03-16T13:30:29;101735.91;;;9.94;29.58
75646;BME280;64237;52.438;13.240;2023-03-16T13:32:59;101744.38;;;10.12;29.33
75646;BME280;64237;52.438;13.240;2023-03-16T13:35:29;101745.88;;;10.08;28.44